Time;durP1;ratioP1;P1;durP2;ratioP2;P2;SDS_P1;SDS_P2;PMS_P1;PMS_P2;Temp;Humidity;BMP_temperature;BMP_pressure;BME280_temperature;BME280_humidity;BME280_pressure;Samples;Min_cycle;Max_cycle;Signal;HPM_P1;HPM_P2
2021/06/24 00:00:55;;;;;;;2.33;0.50;;;18.90;78.10;;;;;;4995744;28;20045;-65
2021/06/24 00:03:24;;;;;;;0.45;0.40;;;18.80;77.20;;;;;;5004613;28;20031;-65
2021/06/24 00:05:50;;;;;;;0.45;0.30;;;18.80;77.30;;;;;;4997825;28;20038;-64
2021/06/24 00:08:15;;;;;;;1.25;0.40;;;18.80;77.00;;;;;;5002566;28;20042;-64
2021/06/24 00:10:43;;;;;;;0.50;0.40;;;18.80;76.90;;;;;;4996388;28;20501;-65
2021/06/24 00:13:09;;;;;;;0.30;0.30;;;18.80;76.90;;;;;;4999318;28;20057;-65
2021/06/24 00:15:36;;;;;;;1.08;0.50;;;18.70;76.70;;;;;;5000043;28;20072;-65
2021/06/24 00:18:02;;;;;;;2.05;0.47;;;18.70;76.70;;;;;;4999779;28;20077;-65
2021/06/24 00:20:28;;;;;;;0.52;0.52;;;18.60;76.70;;;;;;4997124;28;20038;-64
2021/06/24 00:22:54;;;;;;;2.13;0.50;;;18.60;77.00;;;;;;4998911;28;20125;-63
2021/06/24 00:25:19;;;;;;;0.95;0.68;;;18.50;77.10;;;;;;4996798;28;20038;-64
2021/06/24 00:27:45;;;;;;;0.50;0.50;;;18.50;77.40;;;;;;4995979;28;20042;-64
2021/06/24 00:30:12;;;;;;;0.57;0.57;;;18.40;77.50;;;;;;4993488;28;20046;-64
2021/06/24 00:32:38;;;;;;;0.60;0.60;;;18.40;77.70;;;;;;4997872;28;20069;-65
2021/06/24 00:35:05;;;;;;;0.57;0.57;;;18.30;78.00;;;;;;4997266;28;20065;-64
2021/06/24 00:37:32;;;;;;;0.85;0.70;;;18.30;78.20;;;;;;4997574;28;20457;-65
2021/06/24 00:39:58;;;;;;;0.98;0.68;;;18.30;78.30;;;;;;4999669;28;20510;-64
2021/06/24 00:42:26;;;;;;;0.55;0.55;;;18.30;78.40;;;;;;4996349;28;20084;-64
2021/06/24 00:44:52;;;;;;;0.60;0.50;;;18.30;78.40;;;;;;4995592;28;20050;-64
2021/06/24 00:47:18;;;;;;;0.60;0.60;;;18.30;78.50;;;;;;4996708;28;20052;-63
2021/06/24 00:49:44;;;;;;;0.88;0.50;;;18.30;78.50;;;;;;4995789;28;20121;-63
2021/06/24 00:52:10;;;;;;;0.55;0.55;;;18.30;78.60;;;;;;4996600;28;20125;-65
2021/06/24 00:54:36;;;;;;;0.70;0.70;;;18.30;78.50;;;;;;4998178;28;20061;-64
2021/06/24 00:57:02;;;;;;;1.40;0.70;;;18.30;78.60;;;;;;4997297;28;20375;-63
2021/06/24 00:59:27;;;;;;;2.40;0.60;;;18.20;78.40;;;;;;4997387;28;20087;-64
2021/06/24 01:01:53;;;;;;;0.90;0.60;;;18.20;78.40;;;;;;4998653;28;20125;-64
2021/06/24 01:04:22;;;;;;;0.75;0.75;;;18.20;78.30;;;;;;4997319;28;20085;-64
2021/06/24 01:06:52;;;;;;;1.90;1.10;;;18.10;78.40;;;;;;5001740;28;20046;-64
2021/06/24 01:09:18;;;;;;;2.20;0.70;;;18.10;78.90;;;;;;5002190;28;20091;-64
2021/06/24 01:11:45;;;;;;;1.88;0.88;;;18.10;78.70;;;;;;4995439;28;20560;-64
2021/06/24 01:14:11;;;;;;;1.17;0.90;;;18.00;78.80;;;;;;4997260;28;20044;-64
2021/06/24 01:16:38;;;;;;;1.27;0.90;;;18.00;79.00;;;;;;4991964;28;20045;-64
2021/06/24 01:19:04;;;;;;;2.50;1.10;;;17.90;79.10;;;;;;4995738;28;20046;-64
2021/06/24 01:21:30;;;;;;;1.15;1.08;;;17.90;79.00;;;;;;4992738;28;20042;-64
2021/06/24 01:23:56;;;;;;;2.33;0.98;;;17.90;79.30;;;;;;4997393;28;20096;-64
2021/06/24 01:26:22;;;;;;;1.42;1.20;;;17.80;79.30;;;;;;4992889;28;20078;-66
2021/06/24 01:28:48;;;;;;;1.30;1.08;;;17.80;79.40;;;;;;4997195;28;20037;-64
2021/06/24 01:31:14;;;;;;;1.30;1.20;;;17.80;79.60;;;;;;4995259;28;20841;-64
2021/06/24 01:33:40;;;;;;;1.75;1.30;;;17.80;79.80;;;;;;4994405;28;20045;-64
2021/06/24 01:36:06;;;;;;;2.45;1.27;;;17.80;80.00;;;;;;4995787;28;20042;-64
2021/06/24 01:38:33;;;;;;;1.10;1.00;;;17.70;80.00;;;;;;4993003;28;20038;-64
2021/06/24 01:40:59;;;;;;;1.42;1.20;;;17.70;80.00;;;;;;4996212;28;20034;-65
2021/06/24 01:43:26;;;;;;;1.15;1.15;;;17.80;80.00;;;;;;4995207;28;21042;-62
2021/06/24 01:45:53;;;;;;;2.30;1.48;;;17.80;79.90;;;;;;4995599;28;20068;-62
2021/06/24 01:48:21;;;;;;;1.70;1.60;;;17.80;80.00;;;;;;4995245;28;21677;-65
2021/06/24 01:50:47;;;;;;;2.42;1.50;;;17.80;80.10;;;;;;4993962;28;20429;-64
2021/06/24 01:53:13;;;;;;;1.48;1.38;;;17.80;80.10;;;;;;4998317;28;20047;-65
2021/06/24 01:55:40;;;;;;;2.83;1.70;;;17.80;80.00;;;;;;4996693;28;20092;-64
2021/06/24 01:58:08;;;;;;;1.80;1.70;;;17.80;79.90;;;;;;4993699;28;20131;-65
2021/06/24 02:00:34;;;;;;;2.03;1.67;;;17.80;79.80;;;;;;4995589;28;20049;-63
2021/06/24 02:03:01;;;;;;;1.90;1.80;;;17.80;79.80;;;;;;4992897;28;20379;-62
2021/06/24 02:05:27;;;;;;;2.22;2.05;;;17.80;79.90;;;;;;4995476;28;20510;-63
2021/06/24 02:07:53;;;;;;;2.05;1.95;;;17.80;79.90;;;;;;4996818;28;20099;-64
2021/06/24 02:10:19;;;;;;;2.28;2.15;;;17.80;80.00;;;;;;4995978;28;20030;-63
2021/06/24 02:12:44;;;;;;;2.53;2.33;;;17.80;80.80;;;;;;4993122;28;20601;-64
2021/06/24 02:15:12;;;;;;;2.40;2.25;;;17.80;79.80;;;;;;4995187;28;20128;-64
2021/06/24 02:17:38;;;;;;;2.35;2.13;;;17.80;79.80;;;;;;4995204;28;21408;-64
2021/06/24 02:20:07;;;;;;;3.60;2.40;;;17.90;79.80;;;;;;4993740;28;20030;-64
2021/06/24 02:22:33;;;;;;;2.33;2.15;;;17.80;79.80;;;;;;4999342;28;20048;-62
2021/06/24 02:24:59;;;;;;;5.10;2.63;;;17.80;79.70;;;;;;4995355;28;20038;-64
2021/06/24 02:27:24;;;;;;;2.67;2.47;;;17.80;79.80;;;;;;4996062;28;20061;-64
2021/06/24 02:29:50;;;;;;;2.15;2.05;;;17.80;79.90;;;;;;4999843;28;20190;-64
2021/06/24 02:32:16;;;;;;;2.42;2.22;;;17.80;80.00;;;;;;4995788;28;20027;-65
2021/06/24 02:34:45;;;;;;;2.67;2.22;;;17.80;79.80;;;;;;4994304;28;20387;-65
2021/06/24 02:37:10;;;;;;;2.33;2.13;;;17.80;79.80;;;;;;4996550;28;20057;-63
2021/06/24 02:39:36;;;;;;;2.47;2.28;;;17.80;79.90;;;;;;4995563;28;20056;-64
2021/06/24 02:42:03;;;;;;;2.90;2.70;;;17.80;80.00;;;;;;4995289;28;20406;-64
2021/06/24 02:44:28;;;;;;;3.55;2.58;;;17.80;80.00;;;;;;4998018;28;20045;-64
2021/06/24 02:46:54;;;;;;;2.85;2.65;;;17.80;80.10;;;;;;4993188;28;20026;-64
2021/06/24 02:49:19;;;;;;;2.63;2.42;;;17.80;80.30;;;;;;4997804;28;20457;-65
2021/06/24 02:51:48;;;;;;;2.88;2.67;;;17.80;80.40;;;;;;4996764;28;20034;-63
2021/06/24 02:54:15;;;;;;;2.92;2.72;;;17.80;80.50;;;;;;4997249;28;20069;-64
2021/06/24 02:56:41;;;;;;;3.30;3.10;;;17.80;80.70;;;;;;4993975;28;20042;-63
2021/06/24 02:59:08;;;;;;;3.03;2.72;;;17.80;80.50;;;;;;4995877;28;20038;-64
2021/06/24 03:01:35;;;;;;;2.80;2.60;;;17.80;80.40;;;;;;4998837;28;20105;-64
2021/06/24 03:04:00;;;;;;;3.30;2.70;;;17.80;80.50;;;;;;4999572;28;20133;-65
2021/06/24 03:06:26;;;;;;;3.22;3.03;;;17.80;80.50;;;;;;4993750;28;20472;-64
2021/06/24 03:08:52;;;;;;;3.22;3.00;;;17.80;80.50;;;;;;4994852;28;20030;-64
2021/06/24 03:11:18;;;;;;;3.70;3.40;;;17.90;80.60;;;;;;4996598;28;20108;-63
2021/06/24 03:13:48;;;;;;;3.17;2.97;;;17.90;80.60;;;;;;5001137;28;20034;-64
2021/06/24 03:16:14;;;;;;;3.45;3.15;;;17.90;81.40;;;;;;4998931;28;20097;-65
2021/06/24 03:18:40;;;;;;;3.67;3.33;;;17.90;80.50;;;;;;4993400;28;20046;-64
2021/06/24 03:21:05;;;;;;;3.53;3.25;;;17.90;80.50;;;;;;4996760;28;20069;-64
2021/06/24 03:23:31;;;;;;;3.28;3.08;;;17.90;80.30;;;;;;4995750;28;20063;-64
2021/06/24 03:25:57;;;;;;;3.33;3.03;;;17.90;80.30;;;;;;4994239;28;20589;-65
2021/06/24 03:28:22;;;;;;;3.38;3.17;;;17.90;80.30;;;;;;4993562;28;20042;-64
2021/06/24 03:30:48;;;;;;;3.58;3.38;;;17.90;80.00;;;;;;4993187;28;20379;-64
2021/06/24 03:33:14;;;;;;;3.70;3.30;;;17.90;79.80;;;;;;4994486;28;20046;-64
2021/06/24 03:35:40;;;;;;;3.53;3.33;;;17.90;79.90;;;;;;4991944;28;20042;-64
2021/06/24 03:38:05;;;;;;;3.83;3.53;;;17.90;80.00;;;;;;4991504;28;20031;-65
2021/06/24 03:40:31;;;;;;;4.22;3.45;;;17.80;80.10;;;;;;4992677;28;20034;-64
2021/06/24 03:42:57;;;;;;;3.85;3.58;;;17.80;80.30;;;;;;4994475;28;20117;-63
2021/06/24 03:45:23;;;;;;;3.50;3.30;;;17.90;80.40;;;;;;4995990;28;20070;-63
2021/06/24 03:47:48;;;;;;;3.38;3.17;;;17.80;80.20;;;;;;4999907;28;20045;-64
2021/06/24 03:50:15;;;;;;;3.60;3.40;;;17.80;80.10;;;;;;4995811;28;20050;-65
2021/06/24 03:52:41;;;;;;;3.30;3.10;;;17.80;80.10;;;;;;4997965;28;20387;-64
2021/06/24 03:55:08;;;;;;;3.63;3.17;;;17.90;80.20;;;;;;4999283;28;20410;-65
2021/06/24 03:57:34;;;;;;;4.03;3.38;;;17.90;80.00;;;;;;4996989;28;20041;-64
2021/06/24 04:00:00;;;;;;;3.47;3.28;;;17.90;79.90;;;;;;4999153;28;20026;-65
2021/06/24 04:02:25;;;;;;;3.33;3.13;;;17.90;80.00;;;;;;4996754;28;20525;-64
2021/06/24 04:04:51;;;;;;;3.58;3.38;;;17.90;80.00;;;;;;4995885;28;20469;-64
2021/06/24 04:07:16;;;;;;;3.30;3.10;;;17.90;79.80;;;;;;4996276;28;20494;-63
2021/06/24 04:09:42;;;;;;;3.05;2.85;;;17.90;79.80;;;;;;4997371;28;20038;-64
2021/06/24 04:12:08;;;;;;;3.13;2.83;;;17.90;79.70;;;;;;4996434;28;20037;-64
2021/06/24 04:14:33;;;;;;;2.88;2.67;;;17.90;79.60;;;;;;4997582;28;20038;-64
2021/06/24 04:16:59;;;;;;;3.50;3.20;;;17.90;79.50;;;;;;4997249;28;20038;-64
2021/06/24 04:19:25;;;;;;;3.22;3.03;;;17.90;79.60;;;;;;4997419;28;20049;-64
2021/06/24 04:21:51;;;;;;;3.50;3.22;;;17.90;79.60;;;;;;4997017;28;20045;-64
2021/06/24 04:24:16;;;;;;;3.70;3.40;;;17.90;79.60;;;;;;4997763;28;20030;-65
2021/06/24 04:26:42;;;;;;;4.32;3.15;;;17.90;79.40;;;;;;4998326;28;20887;-65
2021/06/24 04:29:08;;;;;;;3.30;3.10;;;17.90;79.40;;;;;;4993165;28;20056;-66
2021/06/24 04:31:33;;;;;;;4.55;3.40;;;17.90;79.60;;;;;;4993280;28;20486;-64
2021/06/24 04:33:59;;;;;;;3.75;3.45;;;17.90;79.50;;;;;;4997810;28;20069;-64
2021/06/24 04:36:25;;;;;;;3.75;3.50;;;17.90;79.60;;;;;;5000914;28;20062;-65
2021/06/24 04:38:51;;;;;;;3.83;3.53;;;17.90;79.60;;;;;;4997716;28;20042;-64
2021/06/24 04:41:17;;;;;;;4.60;4.07;;;17.80;79.50;;;;;;4998076;28;20128;-65
2021/06/24 04:43:42;;;;;;;27.83;4.00;;;17.80;79.60;;;;;;4999756;28;20042;-65
2021/06/24 04:46:08;;;;;;;17.50;4.43;;;17.80;79.70;;;;;;4999695;28;20662;-65
2021/06/24 04:48:33;;;;;;;3.78;3.47;;;17.70;79.80;;;;;;4998421;28;20034;-64
2021/06/24 04:50:59;;;;;;;4.25;3.78;;;17.70;80.00;;;;;;4997637;28;20082;-65
2021/06/24 04:53:25;;;;;;;3.97;3.67;;;17.70;80.40;;;;;;4998825;28;20041;-65
2021/06/24 04:55:50;;;;;;;4.18;3.88;;;17.70;80.70;;;;;;5005136;28;20418;-65
2021/06/24 04:58:16;;;;;;;3.95;3.65;;;17.70;80.80;;;;;;4998683;28;20138;-64
2021/06/24 05:00:42;;;;;;;3.90;3.60;;;17.70;80.90;;;;;;5001564;28;20409;-65
2021/06/24 05:03:10;;;;;;;4.10;3.80;;;17.70;81.00;;;;;;4995098;28;20526;-64
2021/06/24 05:05:37;;;;;;;3.78;3.47;;;17.70;81.00;;;;;;4997409;28;20046;-62
2021/06/24 05:08:17;;;;;;;4.07;3.78;;;17.80;81.00;;;;;;4997208;28;20042;-64
2021/06/24 05:10:44;;;;;;;3.65;3.35;;;17.80;81.00;;;;;;5003894;28;20046;-65
2021/06/24 05:13:10;;;;;;;3.90;3.60;;;17.80;81.00;;;;;;5004969;28;20064;-65
2021/06/24 05:15:36;;;;;;;3.97;3.63;;;17.90;81.20;;;;;;4996822;28;20061;-63
2021/06/24 05:18:05;;;;;;;4.93;3.60;;;17.90;81.20;;;;;;5000130;28;20400;-65
2021/06/24 05:20:31;;;;;;;4.00;3.70;;;18.00;81.50;;;;;;4998684;28;20117;-65
2021/06/24 05:22:57;;;;;;;3.67;3.15;;;18.00;81.20;;;;;;5006177;28;20450;-65
2021/06/24 05:25:23;;;;;;;4.43;4.05;;;18.10;81.10;;;;;;4996951;28;20061;-65
2021/06/24 05:27:49;;;;;;;4.20;3.80;;;18.10;81.20;;;;;;4997658;28;20033;-65
2021/06/24 05:30:15;;;;;;;4.22;3.92;;;18.20;81.00;;;;;;4995043;28;20089;-65
2021/06/24 05:32:41;;;;;;;4.70;3.90;;;18.30;81.00;;;;;;5003805;28;20062;-65
2021/06/24 05:35:08;;;;;;;5.53;4.13;;;18.30;81.00;;;;;;4998249;28;20073;-65
2021/06/24 05:37:34;;;;;;;5.07;3.55;;;18.40;81.00;;;;;;4995952;28;20034;-65
2021/06/24 05:40:00;;;;;;;5.15;4.03;;;18.50;80.70;;;;;;4999564;28;20026;-65
2021/06/24 05:42:26;;;;;;;5.45;4.10;;;18.50;80.60;;;;;;5005437;28;20461;-65
2021/06/24 05:44:51;;;;;;;3.90;3.60;;;18.60;80.60;;;;;;5004910;28;20052;-65
2021/06/24 05:47:17;;;;;;;3.38;3.08;;;18.60;80.10;;;;;;4998145;28;20038;-65
2021/06/24 05:49:42;;;;;;;3.92;3.28;;;18.70;80.50;;;;;;4997813;28;20437;-65
2021/06/24 05:52:08;;;;;;;3.78;3.08;;;18.70;80.30;;;;;;4998092;28;20630;-65
2021/06/24 05:54:34;;;;;;;3.40;3.10;;;18.80;80.50;;;;;;5002870;28;20065;-65
2021/06/24 05:56:59;;;;;;;2.63;2.42;;;18.80;80.80;;;;;;4998612;28;20030;-65
2021/06/24 05:59:25;;;;;;;3.47;3.20;;;18.80;80.60;;;;;;4996811;28;20080;-65
2021/06/24 06:01:51;;;;;;;5.97;3.78;;;18.90;80.30;;;;;;4998531;28;20026;-65
2021/06/24 06:04:17;;;;;;;8.60;3.72;;;19.00;80.10;;;;;;4998757;28;20041;-65
2021/06/24 06:06:44;;;;;;;4.25;3.50;;;19.10;79.80;;;;;;4995739;28;20038;-64
2021/06/24 06:09:10;;;;;;;4.10;3.47;;;19.10;79.50;;;;;;5003108;28;20034;-64
2021/06/24 06:11:36;;;;;;;4.03;3.72;;;19.10;79.50;;;;;;4999769;28;20034;-64
2021/06/24 06:14:02;;;;;;;3.50;3.20;;;19.10;79.40;;;;;;4998343;28;20336;-64
2021/06/24 06:16:27;;;;;;;3.50;3.17;;;19.10;79.50;;;;;;4998194;28;20122;-64
2021/06/24 06:18:54;;;;;;;3.88;3.10;;;19.20;79.40;;;;;;5003841;28;20170;-65
2021/06/24 06:21:20;;;;;;;3.20;2.63;;;19.20;79.00;;;;;;4996030;28;20065;-65
2021/06/24 06:23:46;;;;;;;3.17;2.90;;;19.30;79.10;;;;;;4996435;28;20034;-66
2021/06/24 06:26:11;;;;;;;3.70;3.40;;;19.30;78.90;;;;;;4994004;28;20053;-65
2021/06/24 06:28:37;;;;;;;3.15;2.85;;;19.30;78.90;;;;;;4994193;28;20113;-65
2021/06/24 06:31:03;;;;;;;3.25;2.90;;;19.30;78.70;;;;;;4998399;28;20033;-65
2021/06/24 06:33:29;;;;;;;3.40;3.10;;;19.40;78.70;;;;;;4997652;28;20035;-65
2021/06/24 06:35:55;;;;;;;3.55;3.05;;;19.30;78.40;;;;;;4997016;28;20026;-65
2021/06/24 06:38:21;;;;;;;3.35;2.65;;;19.30;78.30;;;;;;4994734;28;20112;-65
2021/06/24 06:40:48;;;;;;;3.80;2.80;;;19.30;78.20;;;;;;4999240;28;20107;-65
2021/06/24 06:43:15;;;;;;;5.20;3.13;;;19.40;78.30;;;;;;4996534;28;20053;-65
2021/06/24 06:45:42;;;;;;;3.17;2.97;;;19.30;78.60;;;;;;4997445;28;20459;-65
2021/06/24 06:48:08;;;;;;;3.20;2.90;;;19.30;78.70;;;;;;4996248;28;20080;-65
2021/06/24 06:50:34;;;;;;;2.90;2.70;;;19.40;78.80;;;;;;4995027;28;20038;-66
2021/06/24 06:53:00;;;;;;;3.15;2.95;;;19.40;78.80;;;;;;4998516;28;20045;-66
2021/06/24 06:55:29;;;;;;;3.22;2.92;;;19.40;78.80;;;;;;4998651;28;20046;-66
2021/06/24 06:57:55;;;;;;;4.70;2.53;;;19.50;78.70;;;;;;4997821;28;20091;-65
2021/06/24 07:00:23;;;;;;;3.15;2.85;;;19.50;78.70;;;;;;4994784;28;20037;-65
2021/06/24 07:02:51;;;;;;;3.38;3.10;;;19.50;78.50;;;;;;4987503;28;20601;-65
2021/06/24 07:05:16;;;;;;;3.15;2.95;;;19.60;78.50;;;;;;4998232;28;20050;-66
2021/06/24 07:07:42;;;;;;;3.65;2.85;;;19.60;78.30;;;;;;4993859;28;20039;-65
2021/06/24 07:10:08;;;;;;;3.45;2.90;;;19.60;78.20;;;;;;4993949;28;20042;-65
2021/06/24 07:12:33;;;;;;;3.30;3.10;;;19.60;78.50;;;;;;5002548;28;20053;-66
2021/06/24 07:14:59;;;;;;;3.42;3.17;;;19.70;78.50;;;;;;4999881;28;20043;-66
2021/06/24 07:17:25;;;;;;;3.67;3.38;;;19.70;78.30;;;;;;4996695;28;20118;-66
2021/06/24 07:19:50;;;;;;;3.70;3.40;;;19.80;78.70;;;;;;5001143;28;20030;-66
2021/06/24 07:22:16;;;;;;;3.20;3.00;;;19.80;78.60;;;;;;4999565;28;20038;-66
2021/06/24 07:24:42;;;;;;;3.45;3.25;;;19.90;78.70;;;;;;4999738;28;20045;-65
2021/06/24 07:27:07;;;;;;;3.20;3.00;;;20.00;78.80;;;;;;4998054;28;20482;-65
2021/06/24 07:29:33;;;;;;;3.08;2.88;;;20.10;78.70;;;;;;5001615;28;20048;-65
2021/06/24 07:31:58;;;;;;;3.03;2.83;;;20.20;78.90;;;;;;5001191;28;20091;-66
2021/06/24 07:34:24;;;;;;;4.03;3.15;;;20.30;78.20;;;;;;4999744;28;20045;-66
2021/06/24 07:36:50;;;;;;;2.83;2.63;;;20.40;78.00;;;;;;5000867;28;20069;-66
2021/06/24 07:39:16;;;;;;;2.78;2.60;;;20.50;77.50;;;;;;5003595;28;20059;-65
2021/06/24 07:41:42;;;;;;;2.08;1.98;;;20.50;77.30;;;;;;5000744;28;20046;-65
2021/06/24 07:44:08;;;;;;;2.50;2.30;;;20.60;76.80;;;;;;5005193;28;20038;-65
2021/06/24 07:46:34;;;;;;;2.00;1.80;;;20.60;76.90;;;;;;5001411;28;20062;-66
2021/06/24 07:48:59;;;;;;;2.00;1.90;;;20.70;76.80;;;;;;5001368;28;20053;-66
2021/06/24 07:51:25;;;;;;;2.03;1.92;;;20.80;76.90;;;;;;5005877;28;20042;-65
2021/06/24 07:53:51;;;;;;;1.73;1.63;;;20.90;77.00;;;;;;4998007;28;20034;-66
2021/06/24 07:56:17;;;;;;;1.98;1.77;;;21.00;76.30;;;;;;5005971;28;20401;-66
2021/06/24 07:58:43;;;;;;;1.80;1.48;;;21.10;75.70;;;;;;4999397;28;20038;-66
2021/06/24 08:01:09;;;;;;;1.80;1.48;;;21.20;74.70;;;;;;4998066;28;20092;-65
2021/06/24 08:03:35;;;;;;;1.45;1.35;;;21.30;73.00;;;;;;5004154;28;20065;-65
2021/06/24 08:06:03;;;;;;;1.95;1.80;;;21.30;72.80;;;;;;5002518;28;20033;-65
2021/06/24 08:08:28;;;;;;;1.50;1.40;;;21.50;73.50;;;;;;5000900;28;20039;-66
2021/06/24 08:10:55;;;;;;;2.10;1.75;;;21.50;73.70;;;;;;4999971;28;20112;-66
2021/06/24 08:13:22;;;;;;;1.80;1.70;;;21.60;73.70;;;;;;4998124;28;20062;-66
2021/06/24 08:15:48;;;;;;;2.00;1.90;;;21.70;73.20;;;;;;5001050;28;20034;-66
2021/06/24 08:18:15;;;;;;;1.80;1.70;;;21.80;72.80;;;;;;5003050;28;20046;-66
2021/06/24 08:20:41;;;;;;;2.47;1.73;;;21.90;72.60;;;;;;4997361;28;20129;-66
2021/06/24 08:23:06;;;;;;;1.75;1.63;;;22.00;72.10;;;;;;4998424;28;20654;-65
2021/06/24 08:25:32;;;;;;;1.60;1.50;;;22.00;72.30;;;;;;4999550;28;20612;-66
2021/06/24 08:27:59;;;;;;;1.60;1.50;;;22.00;71.90;;;;;;4998999;28;20044;-66
2021/06/24 08:30:25;;;;;;;1.58;1.48;;;22.10;69.80;;;;;;4997984;28;20058;-66
2021/06/24 08:33:44;;;;;;;1.67;1.58;;;22.10;70.90;;;;;;4998805;28;20072;-66
2021/06/24 08:36:10;;;;;;;1.70;1.60;;;22.10;69.10;;;;;;4997606;28;20096;-65
2021/06/24 08:38:36;;;;;;;1.98;1.80;;;22.00;70.20;;;;;;4998929;28;20030;-65
2021/06/24 08:41:02;;;;;;;2.15;1.80;;;22.00;69.90;;;;;;4998558;28;20046;-66
2021/06/24 08:43:28;;;;;;;2.55;1.80;;;22.00;69.50;;;;;;4998189;28;20122;-66
2021/06/24 08:46:01;;;;;;;1.50;1.40;;;22.00;68.80;;;;;;4999493;28;20117;-66
2021/06/24 08:48:33;;;;;;;1.95;1.85;;;22.00;68.80;;;;;;4998038;28;20041;-66
2021/06/24 08:50:58;;;;;;;3.03;2.30;;;22.00;69.30;;;;;;4999093;28;20572;-66
2021/06/24 08:53:25;;;;;;;2.58;2.10;;;22.00;69.80;;;;;;4999257;28;20156;-66
2021/06/24 08:55:53;;;;;;;2.13;2.03;;;22.10;69.70;;;;;;4998419;28;20058;-65
2021/06/24 08:58:21;;;;;;;2.08;1.98;;;22.10;69.00;;;;;;4999126;28;20034;-66
2021/06/24 09:00:48;;;;;;;1.67;1.58;;;22.20;68.20;;;;;;4996106;28;20117;-66
2021/06/24 09:03:22;;;;;;;1.20;1.10;;;22.20;68.60;;;;;;4998698;28;20043;-66
2021/06/24 09:05:58;;;;;;;1.37;1.20;;;22.30;67.50;;;;;;4998660;28;20050;-66
2021/06/24 09:08:43;;;;;;;2.67;1.08;;;22.40;67.30;;;;;;4998942;28;20107;-65
2021/06/24 09:11:13;;;;;;;1.15;1.02;;;22.60;67.20;;;;;;5002022;28;20125;-66
2021/06/24 09:13:40;;;;;;;1.02;1.00;;;22.70;68.50;;;;;;4997753;28;20131;-66
2021/06/24 09:16:27;;;;;;;1.45;1.35;;;22.80;68.30;;;;;;4996721;28;20513;-66
2021/06/24 09:19:15;;;;;;;1.70;1.60;;;22.90;66.30;;;;;;4994766;28;20042;-65
2021/06/24 09:21:42;;;;;;;0.82;0.82;;;23.00;65.30;;;;;;4999580;28;20080;-67
2021/06/24 09:24:42;;;;;;;0.93;0.60;;;23.10;65.70;;;;;;4998637;28;20034;-66
2021/06/24 09:27:30;;;;;;;0.77;0.60;;;23.10;64.10;;;;;;4965629;28;20034;-66
2021/06/24 09:29:59;;;;;;;1.15;0.90;;;23.20;65.40;;;;;;4998325;28;20038;-66
2021/06/24 09:32:31;;;;;;;0.57;0.50;;;23.30;65.40;;;;;;4995382;28;20038;-66
2021/06/24 09:34:57;;;;;;;0.60;0.50;;;23.50;63.80;;;;;;4998322;28;20042;-66
2021/06/24 09:37:24;;;;;;;0.55;0.55;;;23.60;63.40;;;;;;4998087;28;20108;-67
2021/06/24 09:39:54;;;;;;;1.00;0.80;;;23.70;62.70;;;;;;4999217;28;20382;-66
2021/06/24 09:42:20;;;;;;;2.03;0.70;;;23.70;62.80;;;;;;4998120;28;20025;-66
2021/06/24 09:44:46;;;;;;;0.88;0.50;;;23.70;63.10;;;;;;5002995;28;20038;-67
2021/06/24 09:47:28;;;;;;;1.50;0.63;;;23.70;62.90;;;;;;4997105;28;20087;-66
2021/06/24 09:50:03;;;;;;;0.55;0.55;;;23.80;62.10;;;;;;5002953;28;20034;-66
2021/06/24 09:52:29;;;;;;;;;;;23.80;61.50;;;;;;5003971;28;20452;-67
2021/06/24 09:55:09;;;;;;;0.60;0.60;;;23.90;61.10;;;;;;4999314;28;20274;-66
2021/06/24 09:57:39;;;;;;;1.00;0.68;;;23.90;62.20;;;;;;4999341;28;20041;-66
2021/06/24 10:00:21;;;;;;;0.60;0.60;;;23.90;62.70;;;;;;4997745;28;20103;-66
2021/06/24 10:03:13;;;;;;;0.60;0.55;;;23.90;62.20;;;;;;4997065;28;20038;-67
2021/06/24 10:05:40;;;;;;;0.80;0.70;;;23.90;62.30;;;;;;4995085;28;20039;-67
2021/06/24 10:08:07;;;;;;;0.60;0.60;;;23.90;63.60;;;;;;4998813;28;20026;-67
2021/06/24 10:10:34;;;;;;;0.88;0.70;;;23.90;64.00;;;;;;4996740;28;20496;-66
2021/06/24 10:12:59;;;;;;;0.85;0.57;;;24.00;63.10;;;;;;5001930;28;20068;-66
2021/06/24 10:15:27;;;;;;;0.60;0.60;;;24.10;63.30;;;;;;4999217;28;20058;-66
2021/06/24 10:17:55;;;;;;;0.40;0.40;;;24.10;62.60;;;;;;4997792;28;20413;-66
2021/06/24 10:20:21;;;;;;;0.60;0.60;;;24.10;62.10;;;;;;4998644;28;20441;-66
2021/06/24 10:22:58;;;;;;;0.30;0.30;;;24.10;61.90;;;;;;4998617;28;20092;-66
2021/06/24 10:25:25;;;;;;;0.40;0.40;;;24.10;61.00;;;;;;4998393;28;20049;-67
2021/06/24 10:27:54;;;;;;;0.40;0.30;;;24.20;61.00;;;;;;5004316;28;20046;-67
2021/06/24 10:30:21;;;;;;;0.20;0.20;;;24.20;58.60;;;;;;4998757;28;20034;-67
2021/06/24 10:33:04;;;;;;;0.30;0.25;;;24.20;58.70;;;;;;4994948;28;20061;-67
2021/06/24 10:35:34;;;;;;;0.30;0.30;;;24.30;57.20;;;;;;4998036;28;20068;-66
2021/06/24 10:38:02;;;;;;;0.40;0.30;;;24.30;58.20;;;;;;4998239;28;20041;-67
2021/06/24 10:40:34;;;;;;;1.13;0.30;;;24.30;57.90;;;;;;4998148;28;20045;-67
2021/06/24 10:43:05;;;;;;;0.22;0.22;;;24.30;58.00;;;;;;4995224;28;20702;-66
2021/06/24 10:45:32;;;;;;;0.40;0.40;;;24.40;58.10;;;;;;4995772;28;20038;-66
2021/06/24 10:47:58;;;;;;;0.60;0.60;;;24.40;58.00;;;;;;4997489;28;20054;-67
2021/06/24 10:50:33;;;;;;;0.60;0.50;;;24.40;58.30;;;;;;4997447;28;20042;-66
2021/06/24 10:53:21;;;;;;;0.40;0.40;;;24.40;58.60;;;;;;4998898;28;20034;-67
2021/06/24 10:55:51;;;;;;;0.90;0.60;;;24.50;59.00;;;;;;5014218;28;20030;-67
2021/06/24 10:58:20;;;;;;;0.98;0.68;;;24.50;59.20;;;;;;5001293;28;20043;-67
2021/06/24 11:00:45;;;;;;;0.50;0.50;;;24.50;58.40;;;;;;5000855;28;20034;-67
2021/06/24 11:03:16;;;;;;;0.60;0.60;;;24.40;58.70;;;;;;5000567;28;20045;-67
2021/06/24 11:05:46;;;;;;;0.60;0.60;;;24.40;59.20;;;;;;5000948;28;20033;-67
2021/06/24 11:08:20;;;;;;;2.75;0.60;;;24.40;59.70;;;;;;5002238;28;20030;-67
2021/06/24 11:11:07;;;;;;;0.70;0.70;;;24.40;59.90;;;;;;5001419;28;20046;-67
2021/06/24 11:16:05;;;;;;;1.15;0.52;;;24.50;60.60;;;;;;5000975;28;20045;-67
2021/06/24 11:18:30;;;;;;;0.40;0.40;;;24.60;60.30;;;;;;4999819;28;20026;-67
2021/06/24 11:21:01;;;;;;;0.35;0.32;;;24.60;58.80;;;;;;5000330;28;20881;-67
2021/06/24 11:23:31;;;;;;;1.45;0.50;;;24.60;58.20;;;;;;5001694;28;20031;-67
2021/06/24 11:26:08;;;;;;;0.40;0.40;;;24.60;57.80;;;;;;5000306;28;20084;-67
2021/06/24 11:28:52;;;;;;;0.50;0.30;;;24.60;57.20;;;;;;5000665;28;20120;-67
2021/06/24 11:31:22;;;;;;;0.30;0.30;;;24.60;57.50;;;;;;4997937;28;20045;-67
2021/06/24 11:34:22;;;;;;;0.45;0.40;;;24.60;58.30;;;;;;5000907;28;20039;-67
2021/06/24 11:36:49;;;;;;;0.40;0.40;;;24.60;58.10;;;;;;5003844;28;20605;-67
2021/06/24 11:39:26;;;;;;;0.68;0.30;;;24.60;58.70;;;;;;5005484;28;20037;-67
2021/06/24 11:41:54;;;;;;;0.40;0.32;;;24.60;58.90;;;;;;5001833;28;20129;-67
2021/06/24 11:44:31;;;;;;;0.98;0.50;;;24.70;59.00;;;;;;5000113;28;20641;-69
2021/06/24 11:47:32;;;;;;;0.30;0.30;;;24.70;58.90;;;;;;4997534;28;20065;-67
2021/06/24 12:03:54;;;;;;;0.20;0.20;;;25.00;55.80;;;;;;5000831;28;20061;-67
2021/06/24 12:06:19;;;;;;;0.43;0.30;;;25.10;55.80;;;;;;4999865;28;20072;-67
2021/06/24 12:08:59;;;;;;;0.88;0.30;;;25.10;55.60;;;;;;5000223;28;20038;-67
2021/06/24 12:11:36;;;;;;;0.55;0.40;;;25.10;55.40;;;;;;5001391;28;20030;-67
2021/06/24 12:14:18;;;;;;;0.55;0.40;;;25.10;56.00;;;;;;4998768;28;20038;-67
2021/06/24 12:17:06;;;;;;;0.75;0.30;;;25.10;55.30;;;;;;4997585;28;20030;-67
2021/06/24 12:19:50;;;;;;;0.30;0.30;;;25.10;54.70;;;;;;5001460;28;20044;-67
2021/06/24 12:22:19;;;;;;;0.30;0.30;;;25.10;55.10;;;;;;4998365;28;20121;-67
2021/06/24 12:24:45;;;;;;;6.07;0.45;;;25.10;55.90;;;;;;4999329;28;20030;-67
2021/06/24 12:27:41;;;;;;;0.38;0.30;;;25.10;55.40;;;;;;4999980;28;20409;-67
2021/06/24 12:30:24;;;;;;;0.45;0.22;;;25.20;55.00;;;;;;4990598;28;20524;-67
2021/06/24 12:32:52;;;;;;;0.60;0.35;;;25.20;54.30;;;;;;4999060;28;20069;-67
2021/06/24 12:35:23;;;;;;;0.30;0.30;;;25.30;55.10;;;;;;4999204;28;20030;-67
2021/06/24 12:37:50;;;;;;;0.85;0.38;;;25.30;55.00;;;;;;4997907;28;20410;-67
2021/06/24 12:40:18;;;;;;;0.30;0.30;;;25.40;53.90;;;;;;5013384;28;20034;-67
2021/06/24 12:42:56;;;;;;;0.50;0.40;;;25.40;53.10;;;;;;4998727;28;20044;-68
2021/06/24 12:45:25;;;;;;;0.43;0.38;;;25.30;52.00;;;;;;4998906;28;20044;-67
2021/06/24 12:47:51;;;;;;;0.30;0.30;;;25.30;52.80;;;;;;4999492;28;20022;-68
2021/06/24 12:50:30;;;;;;;0.40;0.30;;;25.20;53.50;;;;;;4998809;28;20509;-68
2021/06/24 12:53:00;;;;;;;0.40;0.30;;;25.20;53.70;;;;;;4995479;28;20520;-68
2021/06/24 12:55:40;;;;;;;0.88;0.40;;;25.30;54.20;;;;;;4997828;28;20109;-68
2021/06/24 12:58:06;;;;;;;0.38;0.30;;;25.30;54.40;;;;;;5011057;28;20030;-67
2021/06/24 13:00:32;;;;;;;0.43;0.40;;;25.40;55.60;;;;;;4997940;28;20525;-67
2021/06/24 13:02:58;;;;;;;0.30;0.30;;;25.50;55.20;;;;;;5003685;28;20099;-67
2021/06/24 13:05:25;;;;;;;1.40;0.47;;;25.60;54.90;;;;;;5000004;28;20053;-67
2021/06/24 13:08:06;;;;;;;0.30;0.30;;;25.60;54.60;;;;;;5004484;28;20039;-67
2021/06/24 13:10:52;;;;;;;0.55;0.55;;;25.70;54.40;;;;;;4998432;28;20030;-67